createdAt,value
2023-05-10T00:00:03.770Z,13.63
2023-05-10T00:01:03.794Z,13.53
2023-05-10T00:02:03.833Z,13.54
2023-05-10T00:03:03.847Z,13.57
2023-05-10T00:04:03.780Z,13.62
2023-05-10T00:05:03.757Z,13.68
2023-05-10T00:06:03.774Z,13.62
2023-05-10T00:07:03.739Z,13.65
2023-05-10T00:08:03.761Z,13.72
2023-05-10T00:09:03.730Z,13.75
2023-05-10T00:10:03.746Z,13.75
2023-05-10T00:11:03.695Z,13.75
2023-05-10T00:12:03.692Z,13.77
2023-05-10T00:13:03.732Z,13.75
2023-05-10T00:14:03.699Z,13.75
2023-05-10T00:15:03.655Z,13.85
2023-05-10T00:16:03.732Z,13.78
2023-05-10T00:17:03.647Z,13.78
2023-05-10T00:18:03.648Z,13.79
2023-05-10T00:19:03.612Z,13.93
2023-05-10T00:20:03.605Z,13.87
2023-05-10T00:21:03.605Z,13.86
2023-05-10T00:22:03.578Z,13.89
2023-05-10T00:23:03.566Z,13.85
2023-05-10T00:24:04.002Z,13.83
2023-05-10T00:25:03.553Z,13.85
2023-05-10T00:26:03.567Z,13.86
2023-05-10T00:27:03.534Z,13.87
2023-05-10T00:28:03.532Z,13.90
2023-05-10T00:29:03.517Z,13.93
2023-05-10T00:30:03.509Z,13.87
2023-05-10T00:31:03.504Z,13.83
2023-05-10T00:32:03.552Z,13.85
2023-05-10T00:33:03.552Z,13.90
2023-05-10T00:34:03.481Z,13.85
2023-05-10T00:35:03.471Z,13.87
2023-05-10T00:36:03.468Z,13.83
2023-05-10T00:37:03.498Z,13.85
2023-05-10T00:38:03.475Z,13.79
2023-05-10T00:39:03.434Z,13.89
2023-05-10T00:40:03.445Z,13.85
2023-05-10T00:41:03.415Z,13.87
2023-05-10T00:42:03.421Z,13.89
2023-05-10T00:43:03.625Z,13.90
2023-05-10T00:44:03.404Z,13.87
2023-05-10T00:45:03.411Z,13.87
2023-05-10T00:46:03.468Z,13.79
2023-05-10T00:47:03.385Z,13.83
2023-05-10T00:48:03.499Z,13.78
2023-05-10T00:49:03.373Z,13.81
2023-05-10T00:50:03.358Z,13.79
2023-05-10T00:51:03.339Z,13.83
2023-05-10T00:52:03.329Z,13.79
2023-05-10T00:53:03.311Z,13.86
2023-05-10T00:54:03.313Z,13.89
2023-05-10T00:55:03.299Z,13.79
2023-05-10T00:56:03.330Z,13.85
2023-05-10T00:57:03.294Z,13.89
2023-05-10T00:58:03.310Z,13.81
2023-05-10T00:59:03.277Z,13.90
2023-05-10T01:00:03.266Z,13.89
2023-05-10T01:01:03.271Z,13.83
2023-05-10T01:02:03.290Z,13.85
2023-05-10T01:03:03.293Z,13.83
2023-05-10T01:04:03.225Z,13.90
2023-05-10T01:05:03.291Z,13.85
2023-05-10T01:06:03.211Z,13.85
2023-05-10T01:07:03.210Z,13.83
2023-05-10T01:08:03.207Z,13.86
2023-05-10T01:09:03.184Z,13.89
2023-05-10T01:10:03.184Z,13.86
2023-05-10T01:11:03.166Z,13.92
2023-05-10T01:12:03.208Z,13.93
2023-05-10T01:13:03.189Z,13.87
2023-05-10T01:14:03.145Z,13.85
2023-05-10T01:15:03.150Z,13.87
2023-05-10T01:16:03.197Z,13.96
2023-05-10T01:17:03.121Z,14.00
2023-05-10T01:18:03.184Z,13.99
2023-05-10T01:19:03.124Z,13.87
2023-05-10T01:20:03.096Z,13.93
2023-05-10T01:21:03.083Z,13.97
2023-05-10T01:22:03.077Z,13.95
2023-05-10T01:23:03.073Z,13.99
2023-05-10T01:24:03.059Z,14.00
2023-05-10T01:25:03.053Z,14.03
2023-05-10T01:26:03.041Z,13.92
2023-05-10T01:27:03.053Z,14.03
2023-05-10T01:28:03.074Z,14.10
2023-05-10T01:29:03.049Z,14.14
2023-05-10T01:30:14.987Z,14.03
2023-05-10T01:31:03.087Z,13.99
2023-05-10T01:32:03.013Z,14.03
2023-05-10T01:33:03.007Z,14.10
2023-05-10T01:34:02.983Z,14.07
2023-05-10T01:35:02.970Z,14.07
2023-05-10T01:36:02.981Z,13.99
2023-05-10T01:37:02.975Z,14.03
2023-05-10T01:38:02.963Z,14.08
2023-05-10T01:39:02.952Z,14.10
2023-05-10T01:40:02.945Z,13.99
2023-05-10T01:41:02.926Z,14.04
2023-05-10T01:42:02.914Z,14.10
2023-05-10T01:43:02.923Z,14.03
2023-05-10T01:44:02.918Z,14.03
2023-05-10T01:45:02.937Z,13.99
2023-05-10T01:46:02.892Z,14.04
2023-05-10T01:47:02.926Z,14.04
2023-05-10T01:48:02.868Z,14.03
2023-05-10T01:49:02.870Z,14.10
2023-05-10T01:50:02.852Z,14.07
2023-05-10T01:51:02.847Z,14.07
2023-05-10T01:52:02.823Z,14.03
2023-05-10T01:53:02.821Z,14.11
2023-05-10T01:54:02.815Z,14.00
2023-05-10T01:55:02.802Z,14.04
2023-05-10T01:56:02.825Z,13.93
2023-05-10T01:57:02.797Z,14.07
2023-05-10T01:58:02.788Z,14.07
2023-05-10T01:59:02.777Z,13.99
2023-05-10T02:00:02.804Z,13.93
2023-05-10T02:01:02.841Z,13.95
2023-05-10T02:02:02.764Z,13.99
2023-05-10T02:03:02.756Z,13.95
2023-05-10T02:04:02.754Z,14.04
2023-05-10T02:05:02.722Z,14.04
2023-05-10T02:06:02.700Z,13.89
2023-05-10T02:07:02.690Z,13.96
2023-05-10T02:08:02.696Z,14.05
2023-05-10T02:09:02.686Z,13.99
2023-05-10T02:10:02.662Z,13.90
2023-05-10T02:11:02.679Z,14.04
2023-05-10T02:12:02.677Z,13.89
2023-05-10T02:13:02.695Z,13.97
2023-05-10T02:14:02.634Z,13.89
2023-05-10T02:15:02.626Z,13.95
2023-05-10T02:16:02.654Z,14.07
2023-05-10T02:17:02.658Z,13.99
2023-05-10T02:18:02.646Z,14.00
2023-05-10T02:19:02.604Z,14.07
2023-05-10T02:20:02.581Z,14.04
2023-05-10T02:21:02.579Z,14.04
2023-05-10T02:22:02.590Z,14.14
2023-05-10T02:23:02.559Z,14.07
2023-05-10T02:24:02.575Z,14.04
2023-05-10T02:25:02.547Z,14.07
2023-05-10T02:26:02.538Z,14.12
2023-05-10T02:27:02.521Z,14.10
2023-05-10T02:28:02.509Z,14.15
2023-05-10T02:29:02.508Z,14.11
2023-05-10T02:30:02.504Z,14.12
2023-05-10T02:31:02.492Z,14.14
2023-05-10T02:32:02.562Z,14.17
2023-05-10T02:33:02.494Z,14.14
2023-05-10T02:34:02.474Z,14.15
2023-05-10T02:35:02.464Z,14.12
2023-05-10T02:36:02.453Z,14.08
2023-05-10T02:37:02.448Z,14.08
2023-05-10T02:38:02.452Z,14.11
2023-05-10T02:39:02.441Z,14.11
2023-05-10T02:40:02.432Z,14.08
2023-05-10T02:41:02.401Z,14.08
2023-05-10T02:42:02.400Z,14.11
2023-05-10T02:43:02.449Z,14.07
2023-05-10T02:44:02.403Z,14.03
2023-05-10T02:45:02.379Z,13.99
2023-05-10T02:46:02.438Z,14.05
2023-05-10T02:47:02.354Z,14.03
2023-05-10T02:48:02.411Z,14.04
2023-05-10T02:49:02.331Z,13.95
2023-05-10T02:50:02.360Z,13.95
2023-05-10T02:51:02.327Z,13.93
2023-05-10T02:52:02.338Z,14.03
2023-05-10T02:53:02.361Z,13.99
2023-05-10T02:54:02.301Z,13.90
2023-05-10T02:55:02.299Z,13.99
2023-05-10T02:56:02.287Z,13.96
2023-05-10T02:57:02.282Z,13.95
2023-05-10T02:58:02.300Z,13.90
2023-05-10T02:59:02.276Z,13.96
2023-05-10T03:00:02.281Z,13.97
2023-05-10T03:01:02.285Z,13.85
2023-05-10T03:02:02.236Z,14.03
2023-05-10T03:03:02.259Z,13.95
2023-05-10T03:04:02.235Z,14.05
2023-05-10T03:05:02.242Z,13.99
2023-05-10T03:06:02.198Z,13.92
2023-05-10T03:07:02.185Z,14.03
2023-05-10T03:08:02.176Z,14.05
2023-05-10T03:09:02.182Z,14.05
2023-05-10T03:10:02.160Z,14.08
2023-05-10T03:11:02.176Z,14.04
2023-05-10T03:12:02.144Z,13.97
2023-05-10T03:13:02.164Z,14.10
2023-05-10T03:14:02.127Z,13.95
2023-05-10T03:15:02.130Z,13.97
2023-05-10T03:16:02.179Z,13.93
2023-05-10T03:17:02.118Z,13.96
2023-05-10T03:18:02.121Z,13.93
2023-05-10T03:19:02.103Z,13.96
2023-05-10T03:20:02.104Z,13.90
2023-05-10T03:21:02.084Z,13.85
2023-05-10T03:22:02.083Z,13.89
2023-05-10T03:23:02.078Z,13.86
2023-05-10T03:24:02.065Z,13.87
2023-05-10T03:25:02.032Z,13.99
2023-05-10T03:26:02.091Z,13.90
2023-05-10T03:27:02.018Z,13.99
2023-05-10T03:28:02.021Z,13.99
2023-05-10T03:29:02.021Z,13.92
2023-05-10T03:30:02.000Z,13.97
2023-05-10T03:31:02.030Z,14.00
2023-05-10T03:32:01.997Z,14.00
2023-05-10T03:33:02.001Z,14.04
2023-05-10T03:34:01.960Z,14.07
2023-05-10T03:35:01.974Z,14.11
2023-05-10T03:36:01.980Z,14.03
2023-05-10T03:37:01.941Z,14.03
2023-05-10T03:38:01.930Z,13.95
2023-05-10T03:39:01.933Z,14.07
2023-05-10T03:40:01.917Z,14.07
2023-05-10T03:41:01.915Z,14.05
2023-05-10T03:42:01.889Z,14.00
2023-05-10T03:43:01.885Z,14.05
2023-05-10T03:44:01.879Z,14.10
2023-05-10T03:45:01.869Z,14.05
2023-05-10T03:46:01.875Z,14.05
2023-05-10T03:47:01.928Z,14.14
2023-05-10T03:48:01.920Z,14.11
2023-05-10T03:49:01.839Z,14.26
2023-05-10T03:50:01.843Z,14.28
2023-05-10T03:51:01.822Z,14.30
2023-05-10T03:52:01.832Z,14.35
2023-05-10T03:53:01.806Z,14.43
2023-05-10T03:54:01.808Z,14.47
2023-05-10T03:55:01.784Z,14.53
2023-05-10T03:56:01.781Z,14.51
2023-05-10T03:57:01.771Z,14.58
2023-05-10T03:58:01.771Z,14.47
2023-05-10T03:59:01.754Z,14.54
2023-05-10T04:00:01.760Z,14.62
2023-05-10T04:01:01.726Z,14.55
2023-05-10T04:02:01.822Z,14.48
2023-05-10T04:03:01.854Z,14.62
2023-05-10T04:04:01.753Z,14.58
2023-05-10T04:05:01.714Z,14.55
2023-05-10T04:06:01.754Z,14.50
2023-05-10T04:07:01.685Z,14.44
2023-05-10T04:08:01.705Z,14.41
2023-05-10T04:09:01.666Z,14.33
2023-05-10T04:10:01.658Z,14.23
2023-05-10T04:11:01.651Z,14.36
2023-05-10T04:12:01.648Z,14.28
2023-05-10T04:13:01.651Z,14.20
2023-05-10T04:14:01.636Z,14.22
2023-05-10T04:15:01.622Z,14.26
2023-05-10T04:16:01.633Z,14.26
2023-05-10T04:17:02.246Z,14.20
2023-05-10T04:18:01.632Z,14.18
2023-05-10T04:19:02.189Z,14.15
2023-05-10T04:20:01.578Z,14.22
2023-05-10T04:21:01.567Z,14.15
2023-05-10T04:22:01.555Z,14.14
2023-05-10T04:23:01.561Z,14.12
2023-05-10T04:24:01.570Z,14.14
2023-05-10T04:25:01.559Z,14.08
2023-05-10T04:26:01.574Z,14.14
2023-05-10T04:27:01.530Z,14.12
2023-05-10T04:28:01.521Z,14.15
2023-05-10T04:29:01.494Z,14.11
2023-05-10T04:30:01.563Z,14.14
2023-05-10T04:31:01.561Z,14.04
2023-05-10T04:32:01.483Z,14.10
2023-05-10T04:33:01.493Z,14.17
2023-05-10T04:34:01.474Z,14.11
2023-05-10T04:35:01.442Z,14.15
2023-05-10T04:36:01.437Z,14.11
2023-05-10T04:37:01.422Z,14.17
2023-05-10T04:38:01.436Z,14.15
2023-05-10T04:39:01.403Z,14.15
2023-05-10T04:40:01.416Z,14.03
2023-05-10T04:41:01.392Z,14.15
2023-05-10T04:42:01.395Z,14.10
2023-05-10T04:43:01.384Z,14.12
2023-05-10T04:44:01.362Z,14.05
2023-05-10T04:45:01.360Z,14.05
2023-05-10T04:46:01.386Z,14.11
2023-05-10T04:47:01.344Z,14.08
2023-05-10T04:48:01.435Z,14.11
2023-05-10T04:49:01.342Z,14.10
2023-05-10T04:50:01.316Z,14.10
2023-05-10T04:51:01.329Z,14.11
2023-05-10T04:52:01.315Z,14.08
2023-05-10T04:53:01.290Z,14.11
2023-05-10T04:54:06.411Z,14.05
2023-05-10T04:55:01.280Z,14.05
2023-05-10T04:56:01.304Z,14.05
2023-05-10T04:57:01.261Z,14.11
2023-05-10T04:58:01.261Z,14.05
2023-05-10T04:59:01.494Z,14.10
2023-05-10T05:00:01.261Z,14.10
2023-05-10T05:01:01.229Z,14.07
2023-05-10T05:02:01.284Z,14.11
2023-05-10T05:03:01.331Z,14.07
2023-05-10T05:04:01.282Z,14.10
2023-05-10T05:05:01.406Z,14.12
2023-05-10T05:06:01.207Z,14.15
2023-05-10T05:07:01.182Z,14.07
2023-05-10T05:08:01.194Z,14.17
2023-05-10T05:09:01.163Z,14.14
2023-05-10T05:10:01.194Z,14.10
2023-05-10T05:11:01.207Z,14.20
2023-05-10T05:12:01.165Z,14.15
2023-05-10T05:13:01.141Z,14.12
2023-05-10T05:14:01.124Z,14.14
2023-05-10T05:15:01.115Z,14.12
2023-05-10T05:16:01.177Z,14.14
2023-05-10T05:17:01.126Z,14.17
2023-05-10T05:18:01.187Z,14.23
2023-05-10T05:19:01.084Z,14.25
2023-05-10T05:20:01.116Z,14.26
2023-05-10T05:21:01.102Z,14.25
2023-05-10T05:22:01.050Z,14.28
2023-05-10T05:23:01.049Z,14.28
2023-05-10T05:24:01.034Z,14.23
2023-05-10T05:25:01.013Z,14.26
2023-05-10T05:26:01.008Z,14.26
2023-05-10T05:27:01.010Z,14.23
2023-05-10T05:28:01.024Z,14.25
2023-05-10T05:29:01.021Z,14.23
2023-05-10T05:30:01.001Z,14.26
2023-05-10T05:31:00.989Z,14.23
2023-05-10T05:32:01.022Z,14.28
2023-05-10T05:33:01.008Z,14.28
2023-05-10T05:34:00.950Z,14.26
2023-05-10T05:35:00.941Z,14.26
2023-05-10T05:36:00.947Z,14.26
2023-05-10T05:37:00.930Z,14.28
2023-05-10T05:38:00.900Z,14.32
2023-05-10T05:39:00.906Z,14.41
2023-05-10T05:40:00.912Z,14.33
2023-05-10T05:41:00.907Z,14.29
2023-05-10T05:42:00.896Z,14.36
2023-05-10T05:43:01.080Z,14.37
2023-05-10T05:44:01.096Z,14.41
2023-05-10T05:45:00.887Z,14.32
2023-05-10T05:46:00.873Z,14.43
2023-05-10T05:47:00.849Z,14.40
2023-05-10T05:48:00.913Z,14.43
2023-05-10T05:49:00.853Z,14.30
2023-05-10T05:50:00.843Z,14.41
2023-05-10T05:51:00.808Z,14.40
2023-05-10T05:52:00.798Z,14.41
2023-05-10T05:53:00.774Z,14.43
2023-05-10T05:54:00.771Z,14.32
2023-05-10T05:55:00.762Z,14.36
2023-05-10T05:56:00.790Z,14.37
2023-05-10T05:57:01.476Z,14.44
2023-05-10T05:58:00.747Z,14.43
2023-05-10T05:59:00.735Z,14.40
2023-05-10T06:00:00.763Z,14.43
2023-05-10T06:01:00.741Z,14.41
2023-05-10T06:02:00.761Z,14.41
2023-05-10T06:03:00.931Z,14.44
2023-05-10T06:04:00.818Z,14.43
2023-05-10T06:05:00.702Z,14.41
2023-05-10T06:06:00.672Z,14.32
2023-05-10T06:07:00.683Z,14.40
2023-05-10T06:08:00.670Z,14.43
2023-05-10T06:09:00.681Z,14.43
2023-05-10T06:10:00.653Z,14.37
2023-05-10T06:11:00.665Z,14.44
2023-05-10T06:12:00.652Z,14.37
2023-05-10T06:13:00.652Z,14.41
2023-05-10T06:14:00.616Z,14.47
2023-05-10T06:15:00.614Z,14.47
2023-05-10T06:16:00.640Z,14.47
2023-05-10T06:17:00.794Z,14.43
2023-05-10T06:18:00.658Z,14.41
2023-05-10T06:19:00.588Z,14.48
2023-05-10T06:20:00.568Z,14.48
2023-05-10T06:21:00.570Z,14.47
2023-05-10T06:22:00.573Z,14.59
2023-05-10T06:23:00.550Z,14.55
2023-05-10T06:24:00.547Z,14.63
2023-05-10T06:25:00.538Z,14.65
2023-05-10T06:26:00.530Z,14.60
2023-05-10T06:27:00.525Z,14.69
2023-05-10T06:28:00.530Z,14.69
2023-05-10T06:29:00.698Z,14.65
2023-05-10T06:30:11.797Z,14.55
2023-05-10T06:31:00.508Z,14.69
2023-05-10T06:32:00.473Z,14.59
2023-05-10T06:33:00.495Z,14.60
2023-05-10T06:34:00.442Z,14.47
2023-05-10T06:35:00.444Z,14.45
2023-05-10T06:36:00.471Z,14.48
2023-05-10T06:37:00.429Z,14.37
2023-05-10T06:38:00.412Z,14.44
2023-05-10T06:39:00.600Z,14.37
2023-05-10T06:40:00.443Z,14.40
2023-05-10T06:41:00.388Z,14.41
2023-05-10T06:42:00.444Z,14.32
2023-05-10T06:43:00.397Z,14.41
2023-05-10T06:44:00.364Z,14.44
2023-05-10T06:45:00.357Z,14.43
2023-05-10T06:46:00.427Z,14.40
2023-05-10T06:47:00.358Z,14.40
2023-05-10T06:48:00.436Z,14.37
2023-05-10T06:49:00.352Z,14.43
2023-05-10T06:50:00.351Z,14.26
2023-05-10T06:51:00.341Z,14.40
2023-05-10T06:52:00.299Z,14.43
2023-05-10T06:53:00.339Z,14.30
2023-05-10T06:54:00.490Z,14.33
2023-05-10T06:55:00.298Z,14.29
2023-05-10T06:56:00.487Z,14.23
2023-05-10T06:57:01.839Z,14.32
2023-05-10T06:58:00.257Z,14.30
2023-05-10T06:59:00.419Z,14.26
2023-05-10T07:00:00.475Z,14.33
2023-05-10T07:01:00.356Z,14.40
2023-05-10T07:02:00.270Z,14.37
2023-05-10T07:03:00.324Z,14.29
2023-05-10T07:04:00.232Z,14.43
2023-05-10T07:05:02.747Z,14.28
2023-05-10T07:06:00.172Z,14.28
2023-05-10T07:07:00.200Z,14.25
2023-05-10T07:08:00.168Z,14.28
2023-05-10T07:09:00.193Z,14.43
2023-05-10T07:10:00.254Z,14.43
2023-05-10T07:11:00.158Z,14.41
2023-05-10T07:12:00.151Z,14.45
2023-05-10T07:13:00.259Z,14.36
2023-05-10T07:14:00.177Z,14.43
2023-05-10T07:15:00.171Z,14.43
2023-05-10T07:16:00.249Z,14.29
2023-05-10T07:17:00.179Z,14.25
2023-05-10T07:18:00.353Z,14.30
2023-05-10T07:19:00.281Z,14.26
2023-05-10T07:20:00.120Z,14.26
2023-05-10T07:21:00.077Z,14.28
2023-05-10T07:22:00.067Z,14.40
2023-05-10T07:23:00.057Z,14.36
2023-05-10T07:24:00.096Z,14.47
2023-05-10T07:25:00.312Z,14.45
2023-05-10T07:26:00.051Z,14.50
2023-05-10T07:27:00.075Z,14.59
2023-05-10T07:28:00.028Z,14.59
2023-05-10T07:29:00.030Z,14.65
2023-05-10T07:30:00.006Z,14.72
2023-05-10T07:31:00.037Z,14.81
2023-05-10T07:31:59.992Z,14.85
2023-05-10T07:33:00.006Z,14.86
2023-05-10T07:33:59.949Z,14.89
2023-05-10T07:34:59.977Z,14.92
2023-05-10T07:35:59.950Z,14.92
2023-05-10T07:36:59.938Z,14.88
2023-05-10T07:38:00.215Z,14.85
2023-05-10T07:38:59.931Z,14.88
2023-05-10T07:40:00.236Z,14.77
2023-05-10T07:40:59.901Z,14.81
2023-05-10T07:41:59.879Z,14.79
2023-05-10T07:42:59.889Z,14.89
2023-05-10T07:43:59.886Z,14.89
2023-05-10T07:45:00.149Z,14.91
2023-05-10T07:45:59.880Z,14.69
2023-05-10T07:46:59.848Z,14.66
2023-05-10T07:47:59.914Z,14.60
2023-05-10T07:48:59.826Z,14.66
2023-05-10T07:49:59.824Z,14.65
2023-05-10T07:50:59.807Z,14.65
2023-05-10T07:51:59.837Z,14.60
2023-05-10T07:52:59.785Z,14.58
2023-05-10T07:53:59.780Z,14.51
2023-05-10T07:54:59.978Z,14.54
2023-05-10T07:55:59.771Z,14.47
2023-05-10T07:56:59.757Z,14.54
2023-05-10T07:57:59.750Z,14.48
2023-05-10T07:58:59.740Z,14.54
2023-05-10T07:59:59.784Z,14.60
2023-05-10T08:00:59.720Z,14.51
2023-05-10T08:01:59.746Z,14.47
2023-05-10T08:02:59.898Z,14.50
2023-05-10T08:03:59.775Z,14.55
2023-05-10T08:04:59.690Z,14.65
2023-05-10T08:05:59.712Z,14.69
2023-05-10T08:06:59.676Z,14.59
2023-05-10T08:07:59.687Z,14.70
2023-05-10T08:08:59.892Z,14.78
2023-05-10T08:09:59.698Z,14.81
2023-05-10T08:10:59.674Z,14.84
2023-05-10T08:11:59.701Z,14.94
2023-05-10T08:12:59.634Z,14.96
2023-05-10T08:13:59.660Z,14.99
2023-05-10T08:14:59.678Z,14.97
2023-05-10T08:15:59.647Z,15.02
2023-05-10T08:16:59.598Z,14.82
2023-05-10T08:17:59.649Z,14.81
2023-05-10T08:18:59.814Z,14.85
2023-05-10T08:19:59.574Z,14.88
2023-05-10T08:20:59.558Z,14.73
2023-05-10T08:21:59.562Z,14.66
2023-05-10T08:22:59.626Z,14.69
2023-05-10T08:23:59.568Z,14.70
2023-05-10T08:24:59.550Z,14.77
2023-05-10T08:25:59.521Z,14.66
2023-05-10T08:26:59.518Z,14.69
2023-05-10T08:27:59.529Z,14.65
2023-05-10T08:28:59.517Z,14.69
2023-05-10T08:29:59.538Z,14.82
2023-05-10T08:30:59.742Z,14.82
2023-05-10T08:31:59.504Z,14.85
2023-05-10T08:32:59.522Z,14.84
2023-05-10T08:33:59.456Z,14.72
2023-05-10T08:34:59.513Z,14.58
2023-05-10T08:35:59.445Z,14.60
2023-05-10T08:36:59.438Z,14.69
2023-05-10T08:37:59.433Z,14.73
2023-05-10T08:38:59.421Z,14.70
2023-05-10T08:39:59.463Z,14.60
2023-05-10T08:40:59.481Z,14.65
2023-05-10T08:41:59.396Z,14.66
2023-05-10T08:42:59.401Z,14.59
2023-05-10T08:43:59.387Z,14.66
2023-05-10T08:44:59.387Z,14.78
2023-05-10T08:45:59.572Z,14.84
2023-05-10T08:46:59.409Z,14.63
2023-05-10T08:47:59.392Z,14.77
2023-05-10T08:48:59.367Z,14.68
2023-05-10T08:49:59.369Z,14.82
2023-05-10T08:50:59.541Z,14.86
2023-05-10T08:51:59.319Z,14.99
2023-05-10T08:52:59.368Z,15.06
2023-05-10T08:53:59.322Z,15.07
2023-05-10T08:54:59.329Z,15.02
2023-05-10T08:55:59.370Z,15.09
2023-05-10T08:56:59.324Z,15.14
2023-05-10T08:57:59.307Z,15.15
2023-05-10T08:58:59.301Z,15.24
2023-05-10T08:59:59.285Z,15.24
2023-05-10T09:00:59.367Z,15.22
2023-05-10T09:01:59.274Z,15.29
2023-05-10T09:02:59.305Z,15.44
2023-05-10T09:03:59.375Z,15.51
2023-05-10T09:04:59.340Z,15.52
2023-05-10T09:05:59.244Z,15.61
2023-05-10T09:06:59.252Z,15.51
2023-05-10T09:07:59.210Z,15.57
2023-05-10T09:08:59.230Z,15.58
2023-05-10T09:09:59.210Z,15.62
2023-05-10T09:10:59.198Z,15.64
2023-05-10T09:11:59.216Z,15.64
2023-05-10T09:12:59.623Z,15.58
2023-05-10T09:13:59.224Z,15.70
2023-05-10T09:14:59.179Z,15.77
2023-05-10T09:16:06.981Z,15.82
2023-05-10T09:16:59.215Z,15.65
2023-05-10T09:17:59.185Z,15.59
2023-05-10T09:18:59.173Z,15.47
2023-05-10T09:19:59.202Z,15.47
2023-05-10T09:20:59.119Z,15.52
2023-05-10T09:21:59.136Z,15.51
2023-05-10T09:22:59.146Z,15.58
2023-05-10T09:23:59.092Z,15.54
2023-05-10T09:24:59.085Z,15.57
2023-05-10T09:25:59.068Z,15.59
2023-05-10T09:26:59.074Z,15.61
2023-05-10T09:27:59.094Z,15.65
2023-05-10T09:28:59.275Z,15.59
2023-05-10T09:29:59.053Z,15.64
2023-05-10T09:30:59.108Z,15.54
2023-05-10T09:31:59.040Z,15.40
2023-05-10T09:32:59.137Z,15.44
2023-05-10T09:33:59.045Z,15.35
2023-05-10T09:34:59.032Z,15.31
2023-05-10T09:35:59.057Z,15.29
2023-05-10T09:36:59.068Z,15.40
2023-05-10T09:37:58.998Z,15.35
2023-05-10T09:38:59.007Z,15.28
2023-05-10T09:39:58.990Z,15.35
2023-05-10T09:40:58.983Z,15.54
2023-05-10T09:41:58.990Z,15.59
2023-05-10T09:42:58.976Z,15.67
2023-05-10T09:43:59.182Z,15.77
2023-05-10T09:44:58.935Z,15.94
2023-05-10T09:45:58.982Z,16.02
2023-05-10T09:46:58.936Z,16.12
2023-05-10T09:47:59.023Z,16.15
2023-05-10T09:48:58.921Z,16.29
2023-05-10T09:49:58.902Z,16.26
2023-05-10T09:50:58.882Z,16.38
2023-05-10T09:51:59.077Z,16.38
2023-05-10T09:52:58.891Z,16.36
2023-05-10T09:53:58.882Z,16.47
2023-05-10T09:54:58.914Z,16.51
2023-05-10T09:55:58.869Z,16.65
2023-05-10T09:56:58.860Z,16.69
2023-05-10T09:57:58.850Z,16.76
2023-05-10T09:58:58.849Z,16.75
2023-05-10T09:59:58.873Z,16.81
2023-05-10T10:00:58.825Z,16.78
2023-05-10T10:01:58.963Z,16.78
2023-05-10T10:02:59.049Z,16.75
2023-05-10T10:03:58.819Z,16.66
2023-05-10T10:04:58.915Z,16.65
2023-05-10T10:05:58.840Z,16.60
2023-05-10T10:06:58.789Z,16.54
2023-05-10T10:07:58.800Z,16.49
2023-05-10T10:08:58.835Z,16.50
2023-05-10T10:09:58.753Z,16.54
2023-05-10T10:10:58.791Z,16.60
2023-05-10T10:11:58.772Z,16.47
2023-05-10T10:12:58.730Z,16.46
2023-05-10T10:13:58.767Z,16.47
2023-05-10T10:14:58.778Z,16.46
2023-05-10T10:15:58.767Z,16.39
2023-05-10T10:17:06.770Z,16.35
2023-05-10T10:17:58.730Z,16.39
2023-05-10T10:18:58.791Z,16.35
2023-05-10T10:19:58.706Z,16.32
2023-05-10T10:20:58.710Z,16.29
2023-05-10T10:21:58.694Z,16.29
2023-05-10T10:22:58.719Z,16.16
2023-05-10T10:23:58.665Z,16.23
2023-05-10T10:24:58.675Z,16.38
2023-05-10T10:25:58.706Z,16.28
2023-05-10T10:26:58.638Z,16.39
2023-05-10T10:27:58.680Z,16.42
2023-05-10T10:28:58.678Z,16.50
2023-05-10T10:29:58.658Z,16.56
2023-05-10T10:30:58.718Z,16.64
2023-05-10T10:31:58.826Z,16.61
2023-05-10T10:32:58.643Z,16.66
2023-05-10T10:33:58.621Z,16.74
2023-05-10T10:34:58.594Z,16.71
2023-05-10T10:35:58.623Z,16.74
2023-05-10T10:36:58.608Z,16.75
2023-05-10T10:37:58.589Z,16.76
2023-05-10T10:38:58.582Z,16.76
2023-05-10T10:39:58.580Z,16.74
2023-05-10T10:40:58.572Z,16.61
2023-05-10T10:41:58.669Z,16.68
2023-05-10T10:42:58.553Z,16.61
2023-05-10T10:43:58.527Z,16.60
2023-05-10T10:44:58.519Z,16.57
2023-05-10T10:45:58.566Z,16.58
2023-05-10T10:46:58.556Z,16.66
2023-05-10T10:47:58.553Z,16.65
2023-05-10T10:48:58.608Z,16.58
2023-05-10T10:49:58.552Z,16.56
2023-05-10T10:50:58.488Z,16.58
2023-05-10T10:51:58.513Z,16.57
2023-05-10T10:52:58.521Z,16.54
2023-05-10T10:53:58.451Z,16.56
2023-05-10T10:54:58.436Z,16.51
2023-05-10T10:55:58.494Z,16.49
2023-05-10T10:56:58.425Z,16.54
2023-05-10T10:57:58.463Z,16.50
2023-05-10T10:58:58.411Z,16.46
2023-05-10T10:59:58.427Z,16.46
2023-05-10T11:00:58.617Z,16.57
2023-05-10T11:01:58.405Z,16.57
2023-05-10T11:02:58.413Z,16.60
2023-05-10T11:03:58.435Z,16.56
2023-05-10T11:04:58.389Z,16.61
2023-05-10T11:05:58.378Z,16.66
2023-05-10T11:06:58.374Z,16.66
2023-05-10T11:07:58.408Z,16.75
2023-05-10T11:08:58.389Z,16.69
2023-05-10T11:09:58.365Z,16.74
2023-05-10T11:10:58.413Z,16.72
2023-05-10T11:11:58.327Z,16.76
2023-05-10T11:12:58.374Z,16.68
2023-05-10T11:13:58.318Z,16.60
2023-05-10T11:14:58.345Z,16.72
2023-05-10T11:15:58.344Z,16.69
2023-05-10T11:16:58.405Z,16.66
2023-05-10T11:17:58.344Z,16.68
2023-05-10T11:18:58.350Z,16.71
2023-05-10T11:19:58.309Z,16.64
2023-05-10T11:20:58.267Z,16.68
2023-05-10T11:21:58.286Z,16.56
2023-05-10T11:22:58.275Z,16.58
2023-05-10T11:23:58.295Z,16.47
2023-05-10T11:24:58.228Z,16.36
2023-05-10T11:25:58.226Z,16.38
2023-05-10T11:26:58.220Z,16.24
2023-05-10T11:27:58.245Z,16.23
2023-05-10T11:28:58.201Z,16.17
2023-05-10T11:29:58.194Z,16.20
2023-05-10T11:30:58.271Z,16.15
2023-05-10T11:31:58.217Z,16.09
2023-05-10T11:32:58.244Z,16.12
2023-05-10T11:33:58.173Z,16.01
2023-05-10T11:34:58.214Z,16.13
2023-05-10T11:35:58.181Z,16.02
2023-05-10T11:36:58.148Z,15.95
2023-05-10T11:37:58.164Z,16.00
2023-05-10T11:38:58.255Z,15.98
2023-05-10T11:39:58.161Z,15.95
2023-05-10T11:40:58.133Z,15.91
2023-05-10T11:41:58.121Z,15.90
2023-05-10T11:42:58.127Z,16.01
2023-05-10T11:43:58.116Z,15.97
2023-05-10T11:44:58.137Z,16.00
2023-05-10T11:45:58.112Z,16.00
2023-05-10T11:46:58.125Z,15.95
2023-05-10T11:47:58.163Z,15.94
2023-05-10T11:48:58.143Z,15.98
2023-05-10T11:49:58.105Z,15.95
2023-05-10T11:50:58.106Z,15.91
2023-05-10T11:51:58.086Z,15.98
2023-05-10T11:52:58.074Z,15.86
2023-05-10T11:53:58.316Z,15.86
2023-05-10T11:54:58.029Z,15.75
2023-05-10T11:55:58.040Z,15.77
2023-05-10T11:56:58.066Z,15.77
2023-05-10T11:57:58.031Z,15.82
2023-05-10T11:58:58.141Z,15.67
2023-05-10T11:59:57.995Z,15.75
2023-05-10T12:00:58.090Z,15.61
2023-05-10T12:01:58.224Z,15.64
2023-05-10T12:02:58.082Z,15.59
2023-05-10T12:03:58.221Z,15.64
2023-05-10T12:04:58.140Z,15.68
2023-05-10T12:05:57.970Z,15.58
2023-05-10T12:06:57.978Z,15.70
2023-05-10T12:07:58.076Z,15.70
2023-05-10T12:08:58.039Z,15.64
2023-05-10T12:09:58.010Z,15.70
2023-05-10T12:10:57.929Z,15.65
2023-05-10T12:11:57.922Z,15.67
2023-05-10T12:12:57.906Z,15.62
2023-05-10T12:13:58.115Z,15.57
2023-05-10T12:14:57.931Z,15.64
2023-05-10T12:15:57.968Z,15.62
2023-05-10T12:16:57.911Z,15.58
2023-05-10T12:17:57.919Z,15.65
2023-05-10T12:18:58.230Z,15.75
2023-05-10T12:19:57.864Z,15.64
2023-05-10T12:20:57.892Z,15.79
2023-05-10T12:21:57.872Z,15.86
2023-05-10T12:23:00.231Z,15.88
2023-05-10T12:23:57.880Z,15.95
2023-05-10T12:24:57.839Z,16.02
2023-05-10T12:25:57.842Z,16.04
2023-05-10T12:26:57.815Z,16.05
2023-05-10T12:27:57.809Z,16.09
2023-05-10T12:28:57.799Z,16.12
2023-05-10T12:29:57.789Z,16.08
2023-05-10T12:30:57.821Z,16.20
2023-05-10T12:31:57.879Z,16.20
2023-05-10T12:32:57.843Z,16.21
2023-05-10T12:33:57.810Z,16.32
2023-05-10T12:34:57.751Z,16.33
2023-05-10T12:35:57.770Z,16.36
2023-05-10T12:36:57.810Z,16.38
2023-05-10T12:37:57.752Z,16.39
2023-05-10T12:38:57.741Z,16.38
2023-05-10T12:39:57.775Z,16.53
2023-05-10T12:40:57.795Z,16.60
2023-05-10T12:41:57.740Z,16.65
2023-05-10T12:42:57.740Z,16.78
2023-05-10T12:43:57.715Z,16.84
2023-05-10T12:44:57.702Z,16.94
2023-05-10T12:45:57.737Z,17.12
2023-05-10T12:46:57.694Z,17.24
2023-05-10T12:47:57.701Z,17.36
2023-05-10T12:49:07.814Z,17.41
2023-05-10T12:49:57.659Z,17.41
2023-05-10T12:50:57.685Z,17.29
2023-05-10T12:51:57.674Z,17.41